sensor_id;sensor_type;location;lat;lon;timestamp;temperature;humidity
69162;DHT22;56269;51.738;21.652;2024-03-06T00:01:45;5.52;99.99
69162;DHT22;56269;51.738;21.652;2024-03-06T00:04:12;5.55;99.99
69162;DHT22;56269;51.738;21.652;2024-03-06T00:06:38;5.54;99.99
69162;DHT22;56269;51.738;21.652;2024-03-06T00:09:04;5.55;99.99
69162;DHT22;56269;51.738;21.652;2024-03-06T00:11:30;5.54;99.99
69162;DHT22;56269;51.738;21.652;2024-03-06T00:13:57;5.54;99.99
69162;DHT22;56269;51.738;21.652;2024-03-06T00:16:22;5.51;99.99
69162;DHT22;56269;51.738;21.652;2024-03-06T00:18:49;5.59;99.99
69162;DHT22;56269;51.738;21.652;2024-03-06T00:21:15;5.56;99.99
69162;DHT22;56269;51.738;21.652;2024-03-06T00:23:41;5.56;99.99
69162;DHT22;56269;51.738;21.652;2024-03-06T00:26:07;5.52;99.99
69162;DHT22;56269;51.738;21.652;2024-03-06T00:28:33;5.52;99.99
69162;DHT22;56269;51.738;21.652;2024-03-06T00:30:59;5.45;99.99
69162;DHT22;56269;51.738;21.652;2024-03-06T00:33:26;5.45;99.99
69162;DHT22;56269;51.738;21.652;2024-03-06T00:35:52;5.44;99.99
69162;DHT22;56269;51.738;21.652;2024-03-06T00:38:18;5.47;99.99
69162;DHT22;56269;51.738;21.652;2024-03-06T00:40:44;5.39;99.99
69162;DHT22;56269;51.738;21.652;2024-03-06T00:43:10;5.35;99.99
69162;DHT22;56269;51.738;21.652;2024-03-06T00:45:36;5.38;99.99
69162;DHT22;56269;51.738;21.652;2024-03-06T00:48:03;5.37;99.99
69162;DHT22;56269;51.738;21.652;2024-03-06T00:50:29;5.41;99.99
69162;DHT22;56269;51.738;21.652;2024-03-06T00:52:55;5.25;99.99
69162;DHT22;56269;51.738;21.652;2024-03-06T00:55:21;5.10;99.99
69162;DHT22;56269;51.738;21.652;2024-03-06T00:57:47;5.23;99.99
69162;DHT22;56269;51.738;21.652;2024-03-06T01:00:14;5.15;99.99
69162;DHT22;56269;51.738;21.652;2024-03-06T01:02:42;5.11;99.99
69162;DHT22;56269;51.738;21.652;2024-03-06T01:05:11;5.08;99.99
69162;DHT22;56269;51.738;21.652;2024-03-06T01:07:38;4.96;99.99
69162;DHT22;56269;51.738;21.652;2024-03-06T01:10:05;4.90;99.99
69162;DHT22;56269;51.738;21.652;2024-03-06T01:12:33;4.86;99.99
69162;DHT22;56269;51.738;21.652;2024-03-06T01:14:59;4.86;99.99
69162;DHT22;56269;51.738;21.652;2024-03-06T01:17:25;4.88;99.99
69162;DHT22;56269;51.738;21.652;2024-03-06T01:19:51;4.80;99.99
69162;DHT22;56269;51.738;21.652;2024-03-06T01:22:18;4.79;99.99
69162;DHT22;56269;51.738;21.652;2024-03-06T01:24:44;4.73;99.99
69162;DHT22;56269;51.738;21.652;2024-03-06T01:27:10;4.67;99.99
69162;DHT22;56269;51.738;21.652;2024-03-06T01:29:36;4.57;99.99
69162;DHT22;56269;51.738;21.652;2024-03-06T01:32:03;4.49;99.99
69162;DHT22;56269;51.738;21.652;2024-03-06T01:34:29;4.48;99.99
69162;DHT22;56269;51.738;21.652;2024-03-06T01:36:55;4.38;99.99
69162;DHT22;56269;51.738;21.652;2024-03-06T01:39:22;4.33;99.99
69162;DHT22;56269;51.738;21.652;2024-03-06T01:41:49;4.28;99.99
69162;DHT22;56269;51.738;21.652;2024-03-06T01:44:17;4.32;99.99
69162;DHT22;56269;51.738;21.652;2024-03-06T01:46:46;4.33;99.99
69162;DHT22;56269;51.738;21.652;2024-03-06T01:49:13;4.42;99.99
69162;DHT22;56269;51.738;21.652;2024-03-06T01:51:41;4.31;99.99
69162;DHT22;56269;51.738;21.652;2024-03-06T01:54:08;4.42;99.99
69162;DHT22;56269;51.738;21.652;2024-03-06T01:56:38;4.55;99.99
69162;DHT22;56269;51.738;21.652;2024-03-06T01:59:07;4.79;99.99
69162;DHT22;56269;51.738;21.652;2024-03-06T02:01:33;4.88;99.99
69162;DHT22;56269;51.738;21.652;2024-03-06T02:03:59;5.07;99.99
69162;DHT22;56269;51.738;21.652;2024-03-06T02:06:26;5.08;99.99
69162;DHT22;56269;51.738;21.652;2024-03-06T02:08:52;5.04;99.99
69162;DHT22;56269;51.738;21.652;2024-03-06T02:11:18;5.20;99.99
69162;DHT22;56269;51.738;21.652;2024-03-06T02:13:44;5.32;99.99
69162;DHT22;56269;51.738;21.652;2024-03-06T02:16:10;5.31;99.99
69162;DHT22;56269;51.738;21.652;2024-03-06T02:18:37;5.24;99.99
69162;DHT22;56269;51.738;21.652;2024-03-06T02:21:03;5.30;99.99
69162;DHT22;56269;51.738;21.652;2024-03-06T02:23:30;5.35;99.99
69162;DHT22;56269;51.738;21.652;2024-03-06T02:25:56;5.35;99.99
69162;DHT22;56269;51.738;21.652;2024-03-06T02:28:22;5.35;99.99
69162;DHT22;56269;51.738;21.652;2024-03-06T02:30:52;5.47;99.99
69162;DHT22;56269;51.738;21.652;2024-03-06T02:33:18;5.34;99.99
69162;DHT22;56269;51.738;21.652;2024-03-06T02:35:44;5.41;99.99
69162;DHT22;56269;51.738;21.652;2024-03-06T02:38:11;5.39;99.99
69162;DHT22;56269;51.738;21.652;2024-03-06T02:40:38;5.42;99.99
69162;DHT22;56269;51.738;21.652;2024-03-06T02:43:04;5.38;99.99
69162;DHT22;56269;51.738;21.652;2024-03-06T02:45:30;5.42;99.99
69162;DHT22;56269;51.738;21.652;2024-03-06T02:47:56;5.39;99.99
69162;DHT22;56269;51.738;21.652;2024-03-06T02:50:23;5.45;99.99
69162;DHT22;56269;51.738;21.652;2024-03-06T02:52:49;5.38;99.99
69162;DHT22;56269;51.738;21.652;2024-03-06T02:55:17;5.41;99.99
69162;DHT22;56269;51.738;21.652;2024-03-06T02:57:43;5.38;99.99
69162;DHT22;56269;51.738;21.652;2024-03-06T03:00:10;5.34;99.99
69162;DHT22;56269;51.738;21.652;2024-03-06T03:02:39;5.39;99.99
69162;DHT22;56269;51.738;21.652;2024-03-06T03:05:06;5.39;99.99
69162;DHT22;56269;51.738;21.652;2024-03-06T03:07:32;5.42;99.99
69162;DHT22;56269;51.738;21.652;2024-03-06T03:09:58;5.30;99.99
69162;DHT22;56269;51.738;21.652;2024-03-06T03:12:24;5.32;99.99
69162;DHT22;56269;51.738;21.652;2024-03-06T03:14:50;5.37;99.99
69162;DHT22;56269;51.738;21.652;2024-03-06T03:17:19;5.38;99.99
69162;DHT22;56269;51.738;21.652;2024-03-06T03:19:45;5.32;99.99
69162;DHT22;56269;51.738;21.652;2024-03-06T03:22:14;5.35;99.99
69162;DHT22;56269;51.738;21.652;2024-03-06T03:24:43;5.35;99.99
69162;DHT22;56269;51.738;21.652;2024-03-06T03:27:09;5.32;99.99
69162;DHT22;56269;51.738;21.652;2024-03-06T03:29:36;5.32;99.69
69162;DHT22;56269;51.738;21.652;2024-03-06T03:32:02;5.28;99.99
69162;DHT22;56269;51.738;21.652;2024-03-06T03:34:28;5.23;99.99
69162;DHT22;56269;51.738;21.652;2024-03-06T03:36:54;5.27;99.90
69162;DHT22;56269;51.738;21.652;2024-03-06T03:39:20;5.21;99.99
69162;DHT22;56269;51.738;21.652;2024-03-06T03:41:50;5.20;99.99
69162;DHT22;56269;51.738;21.652;2024-03-06T03:44:17;5.18;99.99
69162;DHT22;56269;51.738;21.652;2024-03-06T03:46:46;5.23;99.99
69162;DHT22;56269;51.738;21.652;2024-03-06T03:49:13;5.21;99.85
69162;DHT22;56269;51.738;21.652;2024-03-06T03:51:39;5.15;99.66
69162;DHT22;56269;51.738;21.652;2024-03-06T03:54:06;5.15;99.62
69162;DHT22;56269;51.738;21.652;2024-03-06T03:56:32;5.23;99.37
69162;DHT22;56269;51.738;21.652;2024-03-06T03:58:59;5.17;99.26
69162;DHT22;56269;51.738;21.652;2024-03-06T04:01:45;5.20;98.77
69162;DHT22;56269;51.738;21.652;2024-03-06T04:04:13;5.13;99.38
69162;DHT22;56269;51.738;21.652;2024-03-06T04:06:39;5.15;98.66
69162;DHT22;56269;51.738;21.652;2024-03-06T04:09:05;5.14;98.97
69162;DHT22;56269;51.738;21.652;2024-03-06T04:11:31;5.04;99.28
69162;DHT22;56269;51.738;21.652;2024-03-06T04:14:02;5.08;99.40
69162;DHT22;56269;51.738;21.652;2024-03-06T04:16:28;5.03;99.63
69162;DHT22;56269;51.738;21.652;2024-03-06T04:18:54;5.07;99.64
69162;DHT22;56269;51.738;21.652;2024-03-06T04:21:20;5.07;99.11
69162;DHT22;56269;51.738;21.652;2024-03-06T04:23:46;5.11;99.34
69162;DHT22;56269;51.738;21.652;2024-03-06T04:26:13;4.98;99.58
69162;DHT22;56269;51.738;21.652;2024-03-06T04:28:39;5.00;99.64
69162;DHT22;56269;51.738;21.652;2024-03-06T04:31:05;4.91;99.09
69162;DHT22;56269;51.738;21.652;2024-03-06T04:33:32;4.94;99.48
69162;DHT22;56269;51.738;21.652;2024-03-06T04:36:01;4.87;98.72
69162;DHT22;56269;51.738;21.652;2024-03-06T04:38:28;4.91;98.64
69162;DHT22;56269;51.738;21.652;2024-03-06T04:40:55;4.80;98.84
69162;DHT22;56269;51.738;21.652;2024-03-06T04:43:21;4.74;99.07
69162;DHT22;56269;51.738;21.652;2024-03-06T04:45:47;4.73;99.17
69162;DHT22;56269;51.738;21.652;2024-03-06T04:48:13;4.80;99.27
69162;DHT22;56269;51.738;21.652;2024-03-06T04:50:39;4.76;99.66
69162;DHT22;56269;51.738;21.652;2024-03-06T04:53:06;4.70;99.86
69162;DHT22;56269;51.738;21.652;2024-03-06T04:55:32;4.69;99.99
69162;DHT22;56269;51.738;21.652;2024-03-06T04:57:58;4.74;99.99
69162;DHT22;56269;51.738;21.652;2024-03-06T05:00:24;4.70;99.99
69162;DHT22;56269;51.738;21.652;2024-03-06T05:02:50;4.69;99.99
69162;DHT22;56269;51.738;21.652;2024-03-06T05:05:16;4.72;99.78
69162;DHT22;56269;51.738;21.652;2024-03-06T05:07:42;4.80;99.69
69162;DHT22;56269;51.738;21.652;2024-03-06T05:10:09;4.72;99.73
69162;DHT22;56269;51.738;21.652;2024-03-06T05:12:35;4.77;99.73
69162;DHT22;56269;51.738;21.652;2024-03-06T05:15:01;4.72;99.67
69162;DHT22;56269;51.738;21.652;2024-03-06T05:17:29;4.72;99.70
69162;DHT22;56269;51.738;21.652;2024-03-06T05:19:55;4.72;99.69
69162;DHT22;56269;51.738;21.652;2024-03-06T05:22:21;4.76;99.57
69162;DHT22;56269;51.738;21.652;2024-03-06T05:24:47;4.74;99.54
69162;DHT22;56269;51.738;21.652;2024-03-06T05:27:13;4.70;99.04
69162;DHT22;56269;51.738;21.652;2024-03-06T05:29:43;4.74;99.22
69162;DHT22;56269;51.738;21.652;2024-03-06T05:32:09;4.62;99.67
69162;DHT22;56269;51.738;21.652;2024-03-06T05:34:35;4.55;99.99
69162;DHT22;56269;51.738;21.652;2024-03-06T05:37:02;4.66;99.08
69162;DHT22;56269;51.738;21.652;2024-03-06T05:39:31;4.59;99.42
69162;DHT22;56269;51.738;21.652;2024-03-06T05:42:02;4.55;99.38
69162;DHT22;56269;51.738;21.652;2024-03-06T05:44:31;4.49;99.68
69162;DHT22;56269;51.738;21.652;2024-03-06T05:46:59;4.45;99.93
69162;DHT22;56269;51.738;21.652;2024-03-06T05:49:25;4.45;99.99
69162;DHT22;56269;51.738;21.652;2024-03-06T05:51:52;4.38;99.99
69162;DHT22;56269;51.738;21.652;2024-03-06T05:54:20;4.36;99.99
69162;DHT22;56269;51.738;21.652;2024-03-06T05:56:49;4.48;99.99
69162;DHT22;56269;51.738;21.652;2024-03-06T05:59:17;4.36;99.99
69162;DHT22;56269;51.738;21.652;2024-03-06T06:01:44;4.39;99.99
69162;DHT22;56269;51.738;21.652;2024-03-06T06:04:13;4.33;99.99
69162;DHT22;56269;51.738;21.652;2024-03-06T06:06:40;4.39;99.99
69162;DHT22;56269;51.738;21.652;2024-03-06T06:09:07;4.29;99.99
69162;DHT22;56269;51.738;21.652;2024-03-06T06:11:34;4.29;99.99
69162;DHT22;56269;51.738;21.652;2024-03-06T06:14:00;4.31;99.99
69162;DHT22;56269;51.738;21.652;2024-03-06T06:16:27;4.31;99.99
69162;DHT22;56269;51.738;21.652;2024-03-06T06:18:53;4.36;99.99
69162;DHT22;56269;51.738;21.652;2024-03-06T06:21:19;4.38;99.99
69162;DHT22;56269;51.738;21.652;2024-03-06T06:23:45;4.35;99.99
69162;DHT22;56269;51.738;21.652;2024-03-06T06:26:11;4.32;99.99
69162;DHT22;56269;51.738;21.652;2024-03-06T06:28:37;4.26;99.99
69162;DHT22;56269;51.738;21.652;2024-03-06T06:31:06;4.29;99.99
69162;DHT22;56269;51.738;21.652;2024-03-06T06:33:33;4.31;99.99
69162;DHT22;56269;51.738;21.652;2024-03-06T06:35:59;4.39;99.99
69162;DHT22;56269;51.738;21.652;2024-03-06T06:38:25;4.29;99.99
69162;DHT22;56269;51.738;21.652;2024-03-06T06:40:52;4.33;99.99
69162;DHT22;56269;51.738;21.652;2024-03-06T06:43:18;4.41;99.99
69162;DHT22;56269;51.738;21.652;2024-03-06T06:45:44;4.39;99.99
69162;DHT22;56269;51.738;21.652;2024-03-06T06:48:10;4.31;99.99
69162;DHT22;56269;51.738;21.652;2024-03-06T06:50:37;4.26;99.99
69162;DHT22;56269;51.738;21.652;2024-03-06T06:53:03;4.28;99.99
69162;DHT22;56269;51.738;21.652;2024-03-06T06:55:30;4.31;99.99
69162;DHT22;56269;51.738;21.652;2024-03-06T06:57:56;4.26;99.99
69162;DHT22;56269;51.738;21.652;2024-03-06T07:00:23;4.31;99.99
69162;DHT22;56269;51.738;21.652;2024-03-06T07:02:50;4.36;99.99
69162;DHT22;56269;51.738;21.652;2024-03-06T07:05:18;4.33;99.99
69162;DHT22;56269;51.738;21.652;2024-03-06T07:07:44;4.33;99.99
69162;DHT22;56269;51.738;21.652;2024-03-06T07:10:10;4.43;99.99
69162;DHT22;56269;51.738;21.652;2024-03-06T07:12:36;4.35;99.99
69162;DHT22;56269;51.738;21.652;2024-03-06T07:15:03;4.35;99.99
69162;DHT22;56269;51.738;21.652;2024-03-06T07:17:29;4.39;99.99
69162;DHT22;56269;51.738;21.652;2024-03-06T07:19:55;4.46;99.99
69162;DHT22;56269;51.738;21.652;2024-03-06T07:22:22;4.49;99.99
69162;DHT22;56269;51.738;21.652;2024-03-06T07:24:49;4.42;99.99
69162;DHT22;56269;51.738;21.652;2024-03-06T07:27:15;4.43;99.99
69162;DHT22;56269;51.738;21.652;2024-03-06T07:29:41;4.45;99.99
69162;DHT22;56269;51.738;21.652;2024-03-06T07:32:07;4.45;99.99
69162;DHT22;56269;51.738;21.652;2024-03-06T07:34:34;4.41;99.99
69162;DHT22;56269;51.738;21.652;2024-03-06T07:37:00;4.46;99.99
69162;DHT22;56269;51.738;21.652;2024-03-06T07:39:26;4.49;99.99
69162;DHT22;56269;51.738;21.652;2024-03-06T07:41:52;4.36;99.99
69162;DHT22;56269;51.738;21.652;2024-03-06T07:44:19;4.35;99.99
69162;DHT22;56269;51.738;21.652;2024-03-06T07:46:46;4.36;99.99
69162;DHT22;56269;51.738;21.652;2024-03-06T07:49:12;4.32;99.99
69162;DHT22;56269;51.738;21.652;2024-03-06T07:51:39;4.36;99.76
69162;DHT22;56269;51.738;21.652;2024-03-06T07:54:06;4.35;99.99
69162;DHT22;56269;51.738;21.652;2024-03-06T07:56:33;4.36;99.99
69162;DHT22;56269;51.738;21.652;2024-03-06T07:59:00;4.38;99.99
69162;DHT22;56269;51.738;21.652;2024-03-06T08:01:26;4.36;99.99
69162;DHT22;56269;51.738;21.652;2024-03-06T08:03:54;4.25;99.99
69162;DHT22;56269;51.738;21.652;2024-03-06T08:06:21;4.23;99.99
69162;DHT22;56269;51.738;21.652;2024-03-06T08:08:47;4.21;99.99
69162;DHT22;56269;51.738;21.652;2024-03-06T08:11:14;4.28;99.99
69162;DHT22;56269;51.738;21.652;2024-03-06T08:13:40;4.29;99.99
69162;DHT22;56269;51.738;21.652;2024-03-06T08:16:07;4.22;99.99
69162;DHT22;56269;51.738;21.652;2024-03-06T08:18:34;4.28;99.99
69162;DHT22;56269;51.738;21.652;2024-03-06T08:21:01;4.22;99.99
69162;DHT22;56269;51.738;21.652;2024-03-06T08:23:28;4.15;99.96
69162;DHT22;56269;51.738;21.652;2024-03-06T08:25:54;4.05;99.99
69162;DHT22;56269;51.738;21.652;2024-03-06T08:28:21;4.11;99.99
69162;DHT22;56269;51.738;21.652;2024-03-06T08:30:47;4.06;99.99
69162;DHT22;56269;51.738;21.652;2024-03-06T08:33:13;3.98;99.99
69162;DHT22;56269;51.738;21.652;2024-03-06T08:35:39;4.04;99.99
69162;DHT22;56269;51.738;21.652;2024-03-06T08:38:06;4.04;99.99
69162;DHT22;56269;51.738;21.652;2024-03-06T08:40:32;4.01;99.99
69162;DHT22;56269;51.738;21.652;2024-03-06T08:42:58;4.08;99.90
69162;DHT22;56269;51.738;21.652;2024-03-06T08:45:24;4.14;99.71
69162;DHT22;56269;51.738;21.652;2024-03-06T08:47:50;4.18;99.61
69162;DHT22;56269;51.738;21.652;2024-03-06T08:50:19;4.21;99.54
69162;DHT22;56269;51.738;21.652;2024-03-06T08:52:46;4.31;99.67
69162;DHT22;56269;51.738;21.652;2024-03-06T08:55:12;4.26;99.92
69162;DHT22;56269;51.738;21.652;2024-03-06T08:57:39;4.21;99.71
69162;DHT22;56269;51.738;21.652;2024-03-06T09:00:07;4.19;99.79
69162;DHT22;56269;51.738;21.652;2024-03-06T09:02:37;4.19;99.73
69162;DHT22;56269;51.738;21.652;2024-03-06T09:05:08;4.04;99.69
69162;DHT22;56269;51.738;21.652;2024-03-06T09:07:36;4.08;99.99
69162;DHT22;56269;51.738;21.652;2024-03-06T09:10:10;4.02;99.99
69162;DHT22;56269;51.738;21.652;2024-03-06T09:12:36;4.04;99.99
69162;DHT22;56269;51.738;21.652;2024-03-06T09:15:03;4.04;99.99
69162;DHT22;56269;51.738;21.652;2024-03-06T09:17:30;4.06;99.99
69162;DHT22;56269;51.738;21.652;2024-03-06T09:19:56;4.04;99.99
69162;DHT22;56269;51.738;21.652;2024-03-06T09:22:23;4.04;99.83
69162;DHT22;56269;51.738;21.652;2024-03-06T09:24:49;4.06;99.99
69162;DHT22;56269;51.738;21.652;2024-03-06T09:27:16;4.19;99.92
69162;DHT22;56269;51.738;21.652;2024-03-06T09:29:43;4.28;99.99
69162;DHT22;56269;51.738;21.652;2024-03-06T09:32:10;4.23;99.76
69162;DHT22;56269;51.738;21.652;2024-03-06T09:34:38;4.28;99.74
69162;DHT22;56269;51.738;21.652;2024-03-06T09:37:04;4.43;99.71
69162;DHT22;56269;51.738;21.652;2024-03-06T09:39:31;4.32;99.44
69162;DHT22;56269;51.738;21.652;2024-03-06T09:41:57;4.38;99.53
69162;DHT22;56269;51.738;21.652;2024-03-06T09:44:23;4.29;98.56
69162;DHT22;56269;51.738;21.652;2024-03-06T09:46:50;4.36;98.15
69162;DHT22;56269;51.738;21.652;2024-03-06T09:49:18;4.41;98.31
69162;DHT22;56269;51.738;21.652;2024-03-06T09:51:45;4.35;98.63
69162;DHT22;56269;51.738;21.652;2024-03-06T09:54:13;4.21;98.70
69162;DHT22;56269;51.738;21.652;2024-03-06T09:56:51;4.21;98.53
69162;DHT22;56269;51.738;21.652;2024-03-06T09:59:18;4.23;98.62
69162;DHT22;56269;51.738;21.652;2024-03-06T10:01:56;4.18;98.97
69162;DHT22;56269;51.738;21.652;2024-03-06T10:04:27;4.08;98.51
69162;DHT22;56269;51.738;21.652;2024-03-06T10:06:54;4.02;98.90
69162;DHT22;56269;51.738;21.652;2024-03-06T10:09:21;4.08;99.25
69162;DHT22;56269;51.738;21.652;2024-03-06T10:11:48;4.02;99.02
69162;DHT22;56269;51.738;21.652;2024-03-06T10:14:14;3.98;98.97
69162;DHT22;56269;51.738;21.652;2024-03-06T10:16:54;3.99;98.92
69162;DHT22;56269;51.738;21.652;2024-03-06T10:19:23;3.85;98.86
69162;DHT22;56269;51.738;21.652;2024-03-06T10:21:50;3.97;98.60
69162;DHT22;56269;51.738;21.652;2024-03-06T10:24:26;3.92;98.90
69162;DHT22;56269;51.738;21.652;2024-03-06T10:26:57;3.90;98.96
69162;DHT22;56269;51.738;21.652;2024-03-06T10:29:25;3.85;98.52
69162;DHT22;56269;51.738;21.652;2024-03-06T10:34:18;3.90;98.66
69162;DHT22;56269;51.738;21.652;2024-03-06T10:36:46;3.92;98.53
69162;DHT22;56269;51.738;21.652;2024-03-06T10:39:17;3.88;98.80
69162;DHT22;56269;51.738;21.652;2024-03-06T10:41:46;3.91;98.77
69162;DHT22;56269;51.738;21.652;2024-03-06T10:44:17;3.95;99.14
69162;DHT22;56269;51.738;21.652;2024-03-06T10:46:47;3.90;98.86
69162;DHT22;56269;51.738;21.652;2024-03-06T10:49:19;3.91;98.89
69162;DHT22;56269;51.738;21.652;2024-03-06T10:51:46;3.95;98.90
69162;DHT22;56269;51.738;21.652;2024-03-06T10:54:13;3.95;98.69
69162;DHT22;56269;51.738;21.652;2024-03-06T10:56:40;3.90;99.07
69162;DHT22;56269;51.738;21.652;2024-03-06T10:59:11;3.80;98.79
69162;DHT22;56269;51.738;21.652;2024-03-06T11:01:42;3.81;99.04
69162;DHT22;56269;51.738;21.652;2024-03-06T11:04:11;3.80;99.19
69162;DHT22;56269;51.738;21.652;2024-03-06T11:06:39;3.80;98.94
69162;DHT22;56269;51.738;21.652;2024-03-06T11:09:05;3.67;98.90
69162;DHT22;56269;51.738;21.652;2024-03-06T11:11:48;3.81;99.58
69162;DHT22;56269;51.738;21.652;2024-03-06T11:14:15;3.90;99.01
69162;DHT22;56269;51.738;21.652;2024-03-06T11:16:57;3.90;98.65
69162;DHT22;56269;51.738;21.652;2024-03-06T11:19:24;3.97;98.62
69162;DHT22;56269;51.738;21.652;2024-03-06T11:21:50;3.94;98.72
69162;DHT22;56269;51.738;21.652;2024-03-06T11:24:18;3.98;98.27
69162;DHT22;56269;51.738;21.652;2024-03-06T11:26:49;3.99;98.19
69162;DHT22;56269;51.738;21.652;2024-03-06T11:29:17;3.87;98.56
69162;DHT22;56269;51.738;21.652;2024-03-06T11:32:06;3.88;98.83
69162;DHT22;56269;51.738;21.652;2024-03-06T11:34:36;3.82;98.66
69162;DHT22;56269;51.738;21.652;2024-03-06T11:37:05;3.95;98.81
69162;DHT22;56269;51.738;21.652;2024-03-06T11:39:34;3.95;98.47
69162;DHT22;56269;51.738;21.652;2024-03-06T11:42:00;3.88;97.96
69162;DHT22;56269;51.738;21.652;2024-03-06T11:44:26;3.82;97.81
69162;DHT22;56269;51.738;21.652;2024-03-06T11:47:04;3.80;98.09
69162;DHT22;56269;51.738;21.652;2024-03-06T11:49:32;3.87;98.35
69162;DHT22;56269;51.738;21.652;2024-03-06T11:52:04;3.81;98.09
69162;DHT22;56269;51.738;21.652;2024-03-06T11:54:32;3.85;98.34
69162;DHT22;56269;51.738;21.652;2024-03-06T11:57:00;3.88;98.47
69162;DHT22;56269;51.738;21.652;2024-03-06T11:59:28;3.90;98.15
69162;DHT22;56269;51.738;21.652;2024-03-06T12:01:56;3.78;97.60
69162;DHT22;56269;51.738;21.652;2024-03-06T12:04:24;3.74;97.94
69162;DHT22;56269;51.738;21.652;2024-03-06T12:06:50;3.71;98.04
69162;DHT22;56269;51.738;21.652;2024-03-06T12:09:17;3.70;97.76
69162;DHT22;56269;51.738;21.652;2024-03-06T12:11:43;3.73;98.08
69162;DHT22;56269;51.738;21.652;2024-03-06T12:14:14;3.75;97.74
69162;DHT22;56269;51.738;21.652;2024-03-06T12:16:43;3.77;97.82
69162;DHT22;56269;51.738;21.652;2024-03-06T12:19:09;3.87;98.01
69162;DHT22;56269;51.738;21.652;2024-03-06T12:21:35;3.87;98.02
69162;DHT22;56269;51.738;21.652;2024-03-06T12:24:10;3.97;97.64
69162;DHT22;56269;51.738;21.652;2024-03-06T12:26:37;3.97;97.32
69162;DHT22;56269;51.738;21.652;2024-03-06T12:29:06;3.94;97.05
69162;DHT22;56269;51.738;21.652;2024-03-06T12:31:35;3.98;97.63
69162;DHT22;56269;51.738;21.652;2024-03-06T12:34:01;3.98;97.15
69162;DHT22;56269;51.738;21.652;2024-03-06T12:36:28;3.97;97.16
69162;DHT22;56269;51.738;21.652;2024-03-06T12:38:56;3.88;97.13
69162;DHT22;56269;51.738;21.652;2024-03-06T12:41:24;3.82;97.35
69162;DHT22;56269;51.738;21.652;2024-03-06T12:43:52;3.92;97.52
69162;DHT22;56269;51.738;21.652;2024-03-06T12:46:19;3.85;97.53
69162;DHT22;56269;51.738;21.652;2024-03-06T12:48:45;3.88;97.45
69162;DHT22;56269;51.738;21.652;2024-03-06T12:51:12;3.85;97.37
69162;DHT22;56269;51.738;21.652;2024-03-06T12:53:38;3.82;97.41
69162;DHT22;56269;51.738;21.652;2024-03-06T12:56:06;3.82;97.27
69162;DHT22;56269;51.738;21.652;2024-03-06T12:58:32;3.84;97.59
69162;DHT22;56269;51.738;21.652;2024-03-06T13:01:01;3.71;97.34
69162;DHT22;56269;51.738;21.652;2024-03-06T13:03:28;3.77;97.70
69162;DHT22;56269;51.738;21.652;2024-03-06T13:05:54;3.81;97.47
69162;DHT22;56269;51.738;21.652;2024-03-06T13:08:20;3.90;97.31
69162;DHT22;56269;51.738;21.652;2024-03-06T13:10:47;3.90;97.04
69162;DHT22;56269;51.738;21.652;2024-03-06T13:13:13;3.85;96.82
69162;DHT22;56269;51.738;21.652;2024-03-06T13:15:39;3.99;97.03
69162;DHT22;56269;51.738;21.652;2024-03-06T13:18:06;3.88;96.77
69162;DHT22;56269;51.738;21.652;2024-03-06T13:20:33;3.90;97.07
69162;DHT22;56269;51.738;21.652;2024-03-06T13:22:59;3.95;96.87
69162;DHT22;56269;51.738;21.652;2024-03-06T13:25:26;4.01;96.66
69162;DHT22;56269;51.738;21.652;2024-03-06T13:27:53;3.92;96.37
69162;DHT22;56269;51.738;21.652;2024-03-06T13:30:20;3.92;95.88
69162;DHT22;56269;51.738;21.652;2024-03-06T13:32:47;3.99;95.84
69162;DHT22;56269;51.738;21.652;2024-03-06T13:35:13;4.01;95.92
69162;DHT22;56269;51.738;21.652;2024-03-06T13:37:43;4.05;96.19
69162;DHT22;56269;51.738;21.652;2024-03-06T13:40:10;4.08;95.80
69162;DHT22;56269;51.738;21.652;2024-03-06T13:42:42;4.04;95.13
69162;DHT22;56269;51.738;21.652;2024-03-06T13:45:09;3.97;95.35
69162;DHT22;56269;51.738;21.652;2024-03-06T13:47:39;3.97;95.64
69162;DHT22;56269;51.738;21.652;2024-03-06T13:50:13;4.09;95.46
69162;DHT22;56269;51.738;21.652;2024-03-06T13:52:41;4.19;95.33
69162;DHT22;56269;51.738;21.652;2024-03-06T13:55:07;4.12;94.75
69162;DHT22;56269;51.738;21.652;2024-03-06T13:57:35;4.16;94.69
69162;DHT22;56269;51.738;21.652;2024-03-06T14:00:07;4.23;94.60
69162;DHT22;56269;51.738;21.652;2024-03-06T14:02:44;4.25;94.72
69162;DHT22;56269;51.738;21.652;2024-03-06T14:05:12;4.29;94.44
69162;DHT22;56269;51.738;21.652;2024-03-06T14:07:38;4.31;94.77
69162;DHT22;56269;51.738;21.652;2024-03-06T14:10:05;4.26;94.44
69162;DHT22;56269;51.738;21.652;2024-03-06T14:12:34;4.26;94.27
69162;DHT22;56269;51.738;21.652;2024-03-06T14:15:01;4.22;94.20
69162;DHT22;56269;51.738;21.652;2024-03-06T14:17:27;4.32;94.52
69162;DHT22;56269;51.738;21.652;2024-03-06T14:19:53;4.35;94.20
69162;DHT22;56269;51.738;21.652;2024-03-06T14:22:19;4.42;93.96
69162;DHT22;56269;51.738;21.652;2024-03-06T14:24:45;4.50;93.39
69162;DHT22;56269;51.738;21.652;2024-03-06T14:27:12;4.45;93.60
69162;DHT22;56269;51.738;21.652;2024-03-06T14:29:38;4.48;93.65
69162;DHT22;56269;51.738;21.652;2024-03-06T14:32:04;4.43;93.54
69162;DHT22;56269;51.738;21.652;2024-03-06T14:34:31;4.43;93.66
69162;DHT22;56269;51.738;21.652;2024-03-06T14:36:57;4.35;93.70
69162;DHT22;56269;51.738;21.652;2024-03-06T14:39:23;4.33;93.69
69162;DHT22;56269;51.738;21.652;2024-03-06T14:41:51;4.23;93.21
69162;DHT22;56269;51.738;21.652;2024-03-06T14:44:18;4.28;93.12
69162;DHT22;56269;51.738;21.652;2024-03-06T14:46:44;4.22;92.57
69162;DHT22;56269;51.738;21.652;2024-03-06T14:49:10;4.25;92.23
69162;DHT22;56269;51.738;21.652;2024-03-06T14:51:36;4.23;92.07
69162;DHT22;56269;51.738;21.652;2024-03-06T14:54:03;4.26;92.04
69162;DHT22;56269;51.738;21.652;2024-03-06T14:56:29;4.26;91.75
69162;DHT22;56269;51.738;21.652;2024-03-06T14:58:57;4.26;91.31
69162;DHT22;56269;51.738;21.652;2024-03-06T15:01:24;4.23;91.51
69162;DHT22;56269;51.738;21.652;2024-03-06T15:03:52;4.29;91.43
69162;DHT22;56269;51.738;21.652;2024-03-06T15:06:18;4.39;91.17
69162;DHT22;56269;51.738;21.652;2024-03-06T15:08:45;4.38;91.26
69162;DHT22;56269;51.738;21.652;2024-03-06T15:11:11;4.31;91.75
69162;DHT22;56269;51.738;21.652;2024-03-06T15:13:38;4.29;91.66
69162;DHT22;56269;51.738;21.652;2024-03-06T15:16:04;4.39;91.95
69162;DHT22;56269;51.738;21.652;2024-03-06T15:18:31;4.36;91.44
69162;DHT22;56269;51.738;21.652;2024-03-06T15:20:58;4.38;90.93
69162;DHT22;56269;51.738;21.652;2024-03-06T15:23:24;4.36;91.64
69162;DHT22;56269;51.738;21.652;2024-03-06T15:25:51;4.33;91.04
69162;DHT22;56269;51.738;21.652;2024-03-06T15:28:17;4.29;90.78
69162;DHT22;56269;51.738;21.652;2024-03-06T15:30:43;4.31;90.74
69162;DHT22;56269;51.738;21.652;2024-03-06T15:33:09;4.33;90.95